Time;durP1;ratioP1;P1;durP2;ratioP2;P2;SDS_P1;SDS_P2;PMS_P1;PMS_P2;Temp;Humidity;BMP_temperature;BMP_pressure;BME280_temperature;BME280_humidity;BME280_pressure;Samples;Min_cycle;Max_cycle;Signal;HPM_P1;HPM_P2
2024/01/24 00:01:38;;;;;;;;;;;7.80;88.50;;;;;;4180444;28;21385;-85
2024/01/24 00:03:39;;;;;;;;;;;7.80;88.60;;;;;;4179553;28;19920;-83
2024/01/24 00:05:39;;;;;;;;;;;7.90;88.80;;;;;;4164384;28;19984;-84
2024/01/24 00:07:39;;;;;;;;;;;7.90;88.50;;;;;;4160691;28;19967;-83
2024/01/24 00:09:40;;;;;;;;;;;8.00;88.90;;;;;;4178513;28;19913;-84
2024/01/24 00:11:41;;;;;;;;;;;8.00;89.10;;;;;;4176074;28;20114;-84
2024/01/24 00:13:41;;;;;;;;;;;8.00;88.90;;;;;;4176924;28;19912;-83
2024/01/24 00:15:42;;;;;;;;;;;8.10;88.90;;;;;;4181848;28;19921;-82
2024/01/24 00:17:42;;;;;;;;;;;8.10;88.60;;;;;;4191323;28;19924;-85
2024/01/24 00:19:43;;;;;;;;;;;8.10;88.70;;;;;;4164179;28;19924;-84
2024/01/24 00:21:43;;;;;;;;;;;8.20;88.80;;;;;;4165670;28;20510;-84
2024/01/24 00:23:44;;;;;;;;;;;8.20;88.70;;;;;;4179653;28;19913;-83
2024/01/24 00:25:44;;;;;;;;;;;8.20;88.70;;;;;;4179250;28;19967;-83
2024/01/24 00:27:45;;;;;;;;;;;8.30;88.80;;;;;;4145349;28;19910;-82
2024/01/24 00:29:45;;;;;;;;;;;8.30;88.90;;;;;;4180642;28;19913;-84
2024/01/24 00:31:46;;;;;;;;;;;8.30;88.90;;;;;;4178907;28;20520;-84
2024/01/24 00:33:48;;;;;;;;;;;8.40;89.00;;;;;;4163232;28;19921;-84
2024/01/24 00:35:48;;;;;;;;;;;8.30;89.10;;;;;;4157642;28;20321;-84
2024/01/24 00:37:49;;;;;;;;;;;8.40;89.70;;;;;;4176705;28;19917;-83
2024/01/24 00:39:49;;;;;;;;;;;8.40;89.20;;;;;;4160105;28;19913;-84
2024/01/24 00:41:50;;;;;;;;;;;8.40;89.40;;;;;;4165577;28;19917;-84
2024/01/24 00:43:51;;;;;;;;;;;8.40;89.30;;;;;;4165419;28;20663;-84
2024/01/24 00:45:51;;;;;;;;;;;8.50;89.40;;;;;;4163919;28;19918;-82
2024/01/24 00:47:52;;;;;;;;;;;8.50;89.20;;;;;;4164219;28;20628;-84
2024/01/24 00:49:53;;;;;;;;;;;8.60;89.50;;;;;;4144677;28;19922;-84
2024/01/24 00:51:57;;;;;;;;;;;8.50;89.40;;;;;;4175623;28;19913;-85
2024/01/24 00:54:18;;;;;;;;;;;8.60;89.60;;;;;;4179398;28;19917;-84
2024/01/24 00:56:18;;;;;;;;;;;8.60;89.50;;;;;;4176073;28;19931;-85
2024/01/24 00:58:39;;;;;;;;;;;8.80;89.70;;;;;;4168302;28;19913;-84
2024/01/24 01:00:59;;;;;;;;;;;8.70;89.80;;;;;;4177776;28;19937;-83
2024/01/24 01:03:01;;;;;;;;;;;8.70;89.80;;;;;;4144176;28;19914;-86
2024/01/24 01:05:21;;;;;;;;;;;8.70;90.00;;;;;;4163652;28;19974;-85
2024/01/24 01:07:42;;;;;;;;;;;8.80;89.80;;;;;;4173627;28;20007;-84
2024/01/24 01:10:03;;;;;;;;;;;8.90;90.00;;;;;;4176442;28;19945;-85
2024/01/24 01:12:23;;;;;;;;;;;8.80;90.10;;;;;;4177817;28;20022;-84
2024/01/24 01:14:44;;;;;;;;;;;8.90;90.00;;;;;;4174650;28;20422;-84
2024/01/24 01:17:04;;;;;;;;;;;8.90;90.20;;;;;;4160163;28;20031;-84
2024/01/24 01:19:25;;;;;;;;;;;9.00;90.10;;;;;;4158985;28;20322;-84
2024/01/24 01:21:25;;;;;;;;;;;9.00;90.10;;;;;;4175716;28;19920;-84
2024/01/24 01:23:26;;;;;;;;;;;9.10;90.50;;;;;;4176354;28;20008;-85
2024/01/24 01:25:26;;;;;;;;;;;9.10;90.10;;;;;;4159303;28;19952;-84
2024/01/24 01:27:27;;;;;;;;;;;9.10;90.00;;;;;;4146072;28;20013;-84
2024/01/24 01:29:27;;;;;;;;;;;9.10;90.10;;;;;;4161440;28;20389;-84
2024/01/24 01:31:28;;;;;;;;;;;9.10;90.00;;;;;;4143249;28;19949;-84
2024/01/24 01:33:28;;;;;;;;;;;9.20;90.00;;;;;;4158803;28;19952;-84
2024/01/24 01:35:29;;;;;;;;;;;9.20;89.90;;;;;;4175797;28;19917;-84
2024/01/24 01:37:29;;;;;;;;;;;9.20;89.80;;;;;;4178211;28;19916;-83
2024/01/24 01:39:30;;;;;;;;;;;9.20;89.80;;;;;;4172615;28;19939;-84
2024/01/24 01:41:31;;;;;;;;;;;9.20;89.80;;;;;;4175554;28;20007;-84
2024/01/24 01:43:51;;;;;;;;;;;9.20;89.70;;;;;;4178660;28;19966;-84
2024/01/24 01:46:18;;;;;;;;;;;9.20;89.80;;;;;;4172313;28;19913;-84
2024/01/24 01:48:19;;;;;;;;;;;9.30;89.80;;;;;;4175833;28;20519;-84
2024/01/24 01:50:20;;;;;;;;;;;9.30;89.60;;;;;;4156508;28;19917;-85
2024/01/24 01:52:22;;;;;;;;;;;9.30;89.60;;;;;;4157353;28;19925;-83
2024/01/24 01:54:23;;;;;;;;;;;9.30;89.50;;;;;;4172759;28;20311;-85
2024/01/24 01:56:24;;;;;;;;;;;9.30;89.60;;;;;;4173811;28;19986;-84
2024/01/24 01:58:25;;;;;;;;;;;9.30;89.40;;;;;;4160232;28;19912;-84
2024/01/24 02:00:35;;;;;;;;;;;9.30;89.40;;;;;;4141683;28;19937;-84
2024/01/24 02:02:36;;;;;;;;;;;9.30;89.20;;;;;;4175232;28;19918;-83
2024/01/24 02:04:37;;;;;;;;;;;9.30;89.10;;;;;;4141764;28;19921;-84
2024/01/24 02:06:58;;;;;;;;;;;9.30;89.10;;;;;;4175256;28;19912;-85
2024/01/24 02:09:18;;;;;;;;;;;9.30;89.10;;;;;;4174184;28;20059;-85
2024/01/24 02:11:40;;;;;;;;;;;9.30;89.00;;;;;;4173893;28;19964;-84
2024/01/24 02:13:40;;;;;;;;;;;9.40;89.20;;;;;;4154537;28;19940;-84
2024/01/24 02:16:04;;;;;;;;;;;9.40;89.20;;;;;;4158335;28;19940;-85
2024/01/24 02:18:24;;;;;;;;;;;9.40;89.00;;;;;;4174532;28;19936;-84
2024/01/24 02:20:45;;;;;;;;;;;9.50;89.10;;;;;;4184634;28;19916;-83
2024/01/24 02:22:52;;;;;;;;;;;9.40;89.00;;;;;;4149464;28;19963;-85
2024/01/24 02:25:12;;;;;;;;;;;9.40;88.90;;;;;;4161511;28;20268;-85
2024/01/24 02:27:33;;;;;;;;;;;9.50;89.00;;;;;;4174846;28;19916;-85
2024/01/24 02:29:57;;;;;;;;;;;9.40;89.20;;;;;;4158311;28;20053;-84
2024/01/24 02:32:18;;;;;;;;;;;9.40;88.70;;;;;;4157606;28;20323;-84
2024/01/24 02:34:38;;;;;;;;;;;9.50;88.70;;;;;;4174936;28;19960;-83
2024/01/24 02:36:59;;;;;;;;;;;9.50;88.70;;;;;;4172634;28;20406;-84
2024/01/24 02:39:19;;;;;;;;;;;9.50;88.50;;;;;;4171789;28;20362;-84
2024/01/24 02:41:40;;;;;;;;;;;9.50;88.50;;;;;;4173559;28;20381;-84
2024/01/24 02:44:01;;;;;;;;;;;9.50;88.50;;;;;;4174375;28;19913;-85
2024/01/24 02:46:02;;;;;;;;;;;9.50;88.30;;;;;;4174199;28;19924;-83
2024/01/24 02:48:03;;;;;;;;;;;9.50;88.40;;;;;;4156322;28;20463;-85
2024/01/24 02:50:04;;;;;;;;;;;9.50;88.40;;;;;;4158885;28;19914;-85
2024/01/24 02:52:05;;;;;;;;;;;9.50;88.50;;;;;;4172859;28;19959;-84
2024/01/24 02:54:06;;;;;;;;;;;9.50;88.60;;;;;;4159967;28;19963;-85
2024/01/24 02:56:07;;;;;;;;;;;9.50;88.50;;;;;;4141500;28;19924;-83
2024/01/24 02:58:08;;;;;;;;;;;9.50;88.50;;;;;;4157952;28;20015;-84
2024/01/24 03:00:09;;;;;;;;;;;9.50;88.40;;;;;;4159896;28;19920;-85
2024/01/24 03:02:10;;;;;;;;;;;9.50;88.30;;;;;;4160750;28;19917;-84
2024/01/24 03:04:11;;;;;;;;;;;9.50;88.10;;;;;;4138609;28;19924;-85
2024/01/24 03:06:12;;;;;;;;;;;9.40;87.40;;;;;;4174035;28;19913;-86
2024/01/24 03:08:13;;;;;;;;;;;9.40;87.20;;;;;;4161132;28;19924;-84
2024/01/24 03:10:13;;;;;;;;;;;9.40;86.90;;;;;;4156609;28;19916;-85
2024/01/24 03:12:34;;;;;;;;;;;9.50;86.80;;;;;;4157006;28;21406;-84
2024/01/24 03:14:54;;;;;;;;;;;9.40;86.60;;;;;;4171739;28;19924;-86
2024/01/24 03:16:55;;;;;;;;;;;9.50;86.30;;;;;;4157645;28;19917;-85
2024/01/24 03:19:16;;;;;;;;;;;9.40;85.90;;;;;;4172389;28;19913;-85
2024/01/24 03:21:36;;;;;;;;;;;9.40;85.40;;;;;;4173287;28;20314;-85
2024/01/24 03:23:57;;;;;;;;;;;9.30;85.50;;;;;;4173375;28;20338;-86
2024/01/24 03:26:18;;;;;;;;;;;9.40;85.70;;;;;;4158698;28;20300;-85
2024/01/24 03:28:38;;;;;;;;;;;9.30;85.80;;;;;;4159367;28;19983;-87
2024/01/24 03:30:59;;;;;;;;;;;9.30;85.50;;;;;;4174340;28;20421;-84
2024/01/24 03:33:21;;;;;;;;;;;9.30;85.50;;;;;;4173636;28;20264;-85
2024/01/24 03:35:41;;;;;;;;;;;9.30;85.60;;;;;;4173427;28;19976;-84
2024/01/24 03:37:42;;;;;;;;;;;9.30;85.80;;;;;;4174647;28;19917;-86
2024/01/24 03:39:42;;;;;;;;;;;9.30;85.90;;;;;;4157381;28;19913;-85
2024/01/24 03:41:43;;;;;;;;;;;9.30;86.10;;;;;;4143081;28;19921;-86
2024/01/24 03:43:43;;;;;;;;;;;9.20;86.30;;;;;;4155665;28;19921;-85
2024/01/24 03:45:44;;;;;;;;;;;9.20;86.60;;;;;;4177139;28;19913;-85
2024/01/24 03:47:45;;;;;;;;;;;9.20;86.60;;;;;;4142653;28;19964;-83
2024/01/24 03:49:46;;;;;;;;;;;9.20;86.50;;;;;;4143699;28;20620;-86
2024/01/24 03:51:47;;;;;;;;;;;9.20;86.70;;;;;;4160433;28;19920;-86
2024/01/24 03:54:08;;;;;;;;;;;9.20;86.80;;;;;;4162556;28;20287;-86
2024/01/24 03:56:28;;;;;;;;;;;9.20;86.70;;;;;;4171844;28;19924;-84
2024/01/24 03:58:31;;;;;;;;;;;9.30;86.70;;;;;;4174525;28;19914;-85
2024/01/24 04:00:54;;;;;;;;;;;9.30;86.60;;;;;;4176744;28;19977;-85
2024/01/24 04:02:56;;;;;;;;;;;9.30;86.50;;;;;;4168478;28;19965;-85
2024/01/24 04:05:17;;;;;;;;;;;9.30;86.40;;;;;;4157832;28;20318;-84
2024/01/24 04:07:33;;;;;;;;;;;9.20;86.40;;;;;;4160131;28;20426;-86
2024/01/24 04:09:54;;;;;;;;;;;9.20;86.20;;;;;;4182036;28;20342;-85
2024/01/24 04:12:14;;;;;;;;;;;9.20;86.20;;;;;;4173018;28;20370;-86
2024/01/24 04:14:35;;;;;;;;;;;9.20;86.10;;;;;;4169425;28;20358;-84
2024/01/24 04:16:55;;;;;;;;;;;9.20;86.00;;;;;;4172630;28;19967;-85
2024/01/24 04:19:16;;;;;;;;;;;9.20;85.90;;;;;;4176042;28;19924;-84
2024/01/24 04:21:43;;;;;;;;;;;9.20;85.80;;;;;;4172977;28;20003;-85
2024/01/24 04:24:04;;;;;;;;;;;9.20;85.70;;;;;;4174060;28;20321;-84
2024/01/24 04:26:24;;;;;;;;;;;9.20;85.60;;;;;;4170746;28;19944;-84
2024/01/24 04:28:45;;;;;;;;;;;9.40;85.50;;;;;;4162176;28;20267;-84
2024/01/24 04:31:05;;;;;;;;;;;9.20;85.30;;;;;;4178965;28;20291;-86
2024/01/24 04:33:26;;;;;;;;;;;9.20;85.20;;;;;;4180352;28;20361;-84
2024/01/24 04:35:46;;;;;;;;;;;9.20;85.20;;;;;;4176173;28;20274;-84
2024/01/24 04:38:07;;;;;;;;;;;9.10;84.90;;;;;;4166902;28;20516;-86
2024/01/24 04:40:28;;;;;;;;;;;9.10;84.90;;;;;;4178235;28;19913;-85
2024/01/24 04:42:48;;;;;;;;;;;9.10;84.70;;;;;;4175878;28;20367;-85
2024/01/24 04:44:49;;;;;;;;;;;9.10;84.50;;;;;;4141479;28;19917;-86
2024/01/24 04:46:50;;;;;;;;;;;9.10;84.60;;;;;;4161796;28;19917;-85
2024/01/24 04:48:50;;;;;;;;;;;9.10;85.20;;;;;;4144257;28;19926;-86
2024/01/24 04:50:51;;;;;;;;;;;9.10;84.50;;;;;;4162720;28;19921;-85
2024/01/24 04:52:52;;;;;;;;;;;9.10;84.30;;;;;;4160252;28;19924;-84
2024/01/24 04:54:52;;;;;;;;;;;9.10;84.20;;;;;;4179006;28;19921;-85
2024/01/24 04:56:53;;;;;;;;;;;9.10;84.00;;;;;;4147737;28;19932;-86
2024/01/24 04:58:53;;;;;;;;;;;9.10;84.00;;;;;;4155099;28;19916;-85
2024/01/24 05:00:55;;;;;;;;;;;9.10;84.00;;;;;;4160772;28;19910;-84
2024/01/24 05:03:09;;;;;;;;;;;9.00;83.80;;;;;;4162003;28;19921;-86
2024/01/24 05:05:30;;;;;;;;;;;9.00;83.70;;;;;;4163362;28;19913;-86
2024/01/24 05:07:30;;;;;;;;;;;9.00;83.50;;;;;;4176948;28;19909;-84
2024/01/24 05:09:51;;;;;;;;;;;8.90;83.30;;;;;;4163359;28;20375;-84
2024/01/24 05:12:11;;;;;;;;;;;8.90;83.20;;;;;;4174897;28;19925;-83
2024/01/24 05:14:32;;;;;;;;;;;9.00;83.10;;;;;;4174997;28;19921;-85
2024/01/24 05:16:53;;;;;;;;;;;8.90;83.90;;;;;;4161348;28;20381;-85
2024/01/24 05:19:14;;;;;;;;;;;8.90;83.20;;;;;;4175974;28;19939;-84
2024/01/24 05:21:41;;;;;;;;;;;9.00;83.30;;;;;;4175549;28;20305;-85
2024/01/24 05:24:02;;;;;;;;;;;8.90;83.30;;;;;;4161021;28;20542;-83
2024/01/24 05:26:22;;;;;;;;;;;8.90;83.50;;;;;;4178043;28;20274;-85
2024/01/24 05:28:43;;;;;;;;;;;9.00;83.60;;;;;;4176914;28;20333;-84
2024/01/24 05:30:49;;;;;;;;;;;8.80;83.50;;;;;;4174396;28;20303;-83
2024/01/24 05:32:50;;;;;;;;;;;8.90;83.50;;;;;;4161910;28;19917;-83
2024/01/24 05:34:50;;;;;;;;;;;8.90;83.40;;;;;;4174767;28;19963;-82
2024/01/24 05:36:53;;;;;;;;;;;8.90;83.20;;;;;;4153007;28;19913;-83
2024/01/24 05:38:53;;;;;;;;;;;8.90;82.80;;;;;;4155464;28;19917;-84
2024/01/24 05:40:54;;;;;;;;;;;8.90;82.60;;;;;;4152648;28;20028;-83
2024/01/24 05:42:55;;;;;;;;;;;9.00;82.70;;;;;;4153774;28;20231;-85
2024/01/24 05:44:55;;;;;;;;;;;8.90;82.40;;;;;;4154926;28;20666;-87
2024/01/24 05:46:56;;;;;;;;;;;8.90;82.50;;;;;;4174294;28;20016;-85
2024/01/24 05:48:56;;;;;;;;;;;8.90;82.40;;;;;;4176231;28;19960;-84
2024/01/24 05:50:57;;;;;;;;;;;8.90;82.10;;;;;;4176191;28;20015;-84
2024/01/24 05:52:58;;;;;;;;;;;8.90;81.80;;;;;;4154958;28;19917;-84
2024/01/24 05:55:15;;;;;;;;;;;8.90;81.80;;;;;;4172828;28;20036;-84
2024/01/24 05:57:24;;;;;;;;;;;8.90;81.50;;;;;;4160600;28;20518;-85
2024/01/24 05:59:45;;;;;;;;;;;8.80;81.40;;;;;;4172521;28;20322;-84
2024/01/24 06:02:06;;;;;;;;;;;8.80;81.20;;;;;;4161049;28;20294;-83
2024/01/24 06:04:26;;;;;;;;;;;8.80;80.80;;;;;;4172531;28;19928;-84
2024/01/24 06:06:49;;;;;;;;;;;8.80;80.70;;;;;;4171094;28;21469;-84
2024/01/24 06:09:09;;;;;;;;;;;8.80;80.70;;;;;;4174817;28;20410;-84
2024/01/24 06:11:30;;;;;;;;;;;8.80;80.60;;;;;;4170333;28;20302;-84
2024/01/24 06:13:50;;;;;;;;;;;8.90;80.70;;;;;;4176746;28;20271;-84
2024/01/24 06:16:11;;;;;;;;;;;8.90;80.50;;;;;;4174467;28;20440;-84
2024/01/24 06:18:32;;;;;;;;;;;8.90;80.10;;;;;;4173804;28;20293;-83
2024/01/24 06:20:52;;;;;;;;;;;8.80;80.00;;;;;;4176537;28;20373;-86
2024/01/24 06:23:13;;;;;;;;;;;8.90;79.90;;;;;;4177234;28;20346;-84
2024/01/24 06:25:33;;;;;;;;;;;9.00;79.50;;;;;;4173318;28;20487;-84
2024/01/24 06:27:54;;;;;;;;;;;8.80;79.50;;;;;;4158813;28;20264;-85
2024/01/24 06:30:14;;;;;;;;;;;8.80;79.30;;;;;;4177051;28;19921;-85
2024/01/24 06:32:15;;;;;;;;;;;8.70;78.70;;;;;;4173124;28;19920;-84
2024/01/24 06:34:15;;;;;;;;;;;8.70;78.80;;;;;;4165954;28;20295;-84
2024/01/24 06:36:16;;;;;;;;;;;8.70;78.70;;;;;;4177230;28;19939;-84
2024/01/24 06:38:31;;;;;;;;;;;8.70;78.70;;;;;;4159444;28;19909;-84
2024/01/24 06:40:52;;;;;;;;;;;8.70;78.70;;;;;;4176530;28;20007;-84
2024/01/24 06:42:52;;;;;;;;;;;8.70;78.40;;;;;;4142941;28;20355;-84
2024/01/24 06:45:13;;;;;;;;;;;8.70;78.20;;;;;;4172358;28;19914;-83
2024/01/24 06:47:34;;;;;;;;;;;8.70;78.00;;;;;;4174210;28;19912;-83
2024/01/24 06:49:54;;;;;;;;;;;8.60;77.70;;;;;;4165161;28;19917;-83
2024/01/24 06:52:15;;;;;;;;;;;8.70;77.90;;;;;;4175105;28;20404;-85
2024/01/24 06:54:35;;;;;;;;;;;8.60;77.80;;;;;;4175149;28;19913;-84
2024/01/24 06:56:57;;;;;;;;;;;8.60;77.60;;;;;;4171988;28;19927;-84
2024/01/24 06:59:17;;;;;;;;;;;8.60;77.40;;;;;;4174405;28;19910;-82
2024/01/24 07:01:38;;;;;;;;;;;8.60;77.50;;;;;;4178085;28;19921;-84
2024/01/24 07:03:58;;;;;;;;;;;8.60;77.60;;;;;;4172834;28;19923;-83
2024/01/24 07:05:59;;;;;;;;;;;8.60;77.40;;;;;;4157004;28;19921;-83
2024/01/24 07:08:00;;;;;;;;;;;8.60;77.40;;;;;;4157911;28;19959;-82
2024/01/24 07:10:00;;;;;;;;;;;8.60;77.20;;;;;;4160424;28;19975;-83
2024/01/24 07:12:02;;;;;;;;;;;8.50;77.20;;;;;;4171282;28;19920;-83
2024/01/24 07:14:03;;;;;;;;;;;8.50;77.00;;;;;;4154581;28;19921;-84
2024/01/24 07:16:04;;;;;;;;;;;8.50;77.10;;;;;;4156812;28;19913;-83
2024/01/24 07:18:05;;;;;;;;;;;8.50;77.10;;;;;;4172547;28;20542;-83
2024/01/24 07:20:06;;;;;;;;;;;8.50;77.10;;;;;;4176026;28;19918;-84
2024/01/24 07:22:27;;;;;;;;;;;8.50;76.90;;;;;;4175970;28;20311;-83
2024/01/24 07:24:47;;;;;;;;;;;8.50;76.90;;;;;;4172645;28;20306;-84
2024/01/24 07:27:08;;;;;;;;;;;8.50;76.90;;;;;;4170470;28;20066;-83
2024/01/24 07:29:28;;;;;;;;;;;8.40;76.60;;;;;;4175881;28;20318;-82
2024/01/24 07:31:29;;;;;;;;;;;8.40;76.70;;;;;;4171202;28;19913;-84
2024/01/24 07:33:50;;;;;;;;;;;8.50;76.80;;;;;;4159845;28;20310;-83
2024/01/24 07:36:10;;;;;;;;;;;8.40;76.50;;;;;;4171824;28;20306;-84
2024/01/24 07:38:32;;;;;;;;;;;8.40;76.60;;;;;;4154296;28;20352;-82
2024/01/24 07:40:52;;;;;;;;;;;8.40;77.20;;;;;;4172566;28;20314;-83
2024/01/24 07:43:13;;;;;;;;;;;8.40;76.40;;;;;;4171388;28;20334;-85
2024/01/24 07:45:33;;;;;;;;;;;8.40;76.40;;;;;;4170205;28;20392;-82
2024/01/24 07:47:34;;;;;;;;;;;8.40;76.40;;;;;;4159214;28;19920;-83
2024/01/24 07:49:34;;;;;;;;;;;8.50;76.50;;;;;;4142143;28;19933;-84
2024/01/24 07:51:35;;;;;;;;;;;8.40;76.30;;;;;;4171174;28;19948;-83
2024/01/24 07:53:38;;;;;;;;;;;8.40;76.30;;;;;;4172680;28;20397;-83
2024/01/24 07:55:38;;;;;;;;;;;8.40;76.40;;;;;;4163553;28;20446;-84
2024/01/24 07:57:40;;;;;;;;;;;8.40;76.30;;;;;;4164060;28;19954;-85
2024/01/24 07:59:40;;;;;;;;;;;8.50;76.40;;;;;;4181321;28;19917;-84
2024/01/24 08:01:42;;;;;;;;;;;8.50;76.40;;;;;;4180288;28;19935;-83
2024/01/24 08:03:44;;;;;;;;;;;8.40;76.30;;;;;;4165093;28;20040;-84
2024/01/24 08:05:44;;;;;;;;;;;8.40;77.10;;;;;;4177329;28;19921;-84
2024/01/24 08:07:45;;;;;;;;;;;8.40;77.20;;;;;;4177877;28;19913;-85
2024/01/24 08:09:48;;;;;;;;;;;8.40;76.50;;;;;;4143799;28;19914;-84
2024/01/24 08:11:53;;;;;;;;;;;8.40;77.30;;;;;;4177150;28;20458;-84
2024/01/24 08:13:54;;;;;;;;;;;8.40;76.80;;;;;;4149169;28;20384;-84
2024/01/24 08:16:18;;;;;;;;;;;8.40;76.80;;;;;;4164100;28;19917;-84
2024/01/24 08:18:38;;;;;;;;;;;8.40;76.90;;;;;;4159890;28;20268;-84
2024/01/24 08:20:59;;;;;;;;;;;8.40;77.00;;;;;;4177897;28;20409;-85
2024/01/24 08:23:19;;;;;;;;;;;8.40;77.20;;;;;;4162021;28;20394;-85
2024/01/24 08:25:40;;;;;;;;;;;8.50;77.30;;;;;;4177273;28;20346;-84
2024/01/24 08:28:00;;;;;;;;;;;8.40;77.40;;;;;;4161922;28;19928;-84
2024/01/24 08:30:21;;;;;;;;;;;8.40;77.30;;;;;;4165611;28;20358;-85
2024/01/24 08:32:42;;;;;;;;;;;8.40;77.40;;;;;;4163691;28;20330;-84
2024/01/24 08:34:43;;;;;;;;;;;8.40;77.30;;;;;;4172574;28;19924;-83
2024/01/24 08:36:44;;;;;;;;;;;8.40;77.30;;;;;;4177384;28;19920;-84
2024/01/24 08:38:45;;;;;;;;;;;8.40;77.50;;;;;;4170678;28;19932;-83
2024/01/24 08:40:45;;;;;;;;;;;8.30;77.50;;;;;;4170098;28;19960;-84
2024/01/24 08:42:46;;;;;;;;;;;8.40;77.60;;;;;;4166844;28;20093;-84
2024/01/24 08:44:46;;;;;;;;;;;8.30;77.50;;;;;;4167531;28;19913;-84
2024/01/24 08:46:50;;;;;;;;;;;8.30;77.50;;;;;;4178541;28;19928;-84
2024/01/24 08:49:12;;;;;;;;;;;8.30;77.60;;;;;;4166035;28;20276;-85
2024/01/24 08:51:33;;;;;;;;;;;8.30;77.50;;;;;;4178846;28;20554;-85
2024/01/24 08:53:33;;;;;;;;;;;8.30;77.60;;;;;;4177128;28;19920;-84
2024/01/24 08:55:54;;;;;;;;;;;8.40;77.70;;;;;;4176411;28;20264;-84
2024/01/24 08:58:15;;;;;;;;;;;8.30;78.00;;;;;;4175714;28;19920;-83
2024/01/24 09:00:35;;;;;;;;;;;8.30;78.10;;;;;;4172424;28;19936;-85
2024/01/24 09:02:56;;;;;;;;;;;8.30;78.40;;;;;;4176474;28;20332;-84
2024/01/24 09:05:05;;;;;;;;;;;8.30;78.80;;;;;;4161107;28;19913;-83
2024/01/24 09:07:26;;;;;;;;;;;8.30;79.10;;;;;;4177697;28;19916;-85
2024/01/24 09:09:48;;;;;;;;;;;8.20;79.20;;;;;;4176597;28;20373;-84
2024/01/24 09:12:09;;;;;;;;;;;8.20;79.40;;;;;;4161756;28;20268;-85
2024/01/24 09:14:29;;;;;;;;;;;8.20;79.60;;;;;;4176821;28;19959;-83
2024/01/24 09:16:50;;;;;;;;;;;8.20;79.70;;;;;;4164457;28;20514;-84
2024/01/24 09:19:12;;;;;;;;;;;8.20;80.00;;;;;;4195180;28;19939;-85
2024/01/24 09:21:32;;;;;;;;;;;8.10;80.30;;;;;;4203127;28;19935;-85
2024/01/24 09:23:53;;;;;;;;;;;8.10;80.40;;;;;;4181260;28;19921;-85
2024/01/24 09:26:13;;;;;;;;;;;8.10;80.70;;;;;;4177911;28;20314;-85
2024/01/24 09:28:34;;;;;;;;;;;8.00;80.80;;;;;;4173751;28;20408;-84
2024/01/24 09:30:54;;;;;;;;;;;8.00;81.00;;;;;;4175562;28;20256;-84
2024/01/24 09:33:15;;;;;;;;;;;8.00;81.00;;;;;;4163765;28;20362;-84
2024/01/24 09:35:36;;;;;;;;;;;8.00;81.30;;;;;;4162130;28;20405;-82
2024/01/24 09:37:56;;;;;;;;;;;8.00;81.30;;;;;;4175729;28;20356;-84
2024/01/24 09:40:17;;;;;;;;;;;7.90;81.50;;;;;;4173306;28;20599;-83
2024/01/24 09:42:41;;;;;;;;;;;7.90;81.60;;;;;;4176912;28;20299;-84
2024/01/24 09:45:02;;;;;;;;;;;7.90;82.20;;;;;;4173321;28;19996;-84
2024/01/24 09:47:23;;;;;;;;;;;7.80;82.30;;;;;;4160655;28;20355;-84
2024/01/24 09:49:24;;;;;;;;;;;7.90;82.10;;;;;;4142671;28;20434;-83
2024/01/24 09:51:25;;;;;;;;;;;7.80;81.90;;;;;;4155531;28;19913;-84
2024/01/24 09:53:27;;;;;;;;;;;7.80;82.00;;;;;;4178067;28;19917;-83
2024/01/24 09:55:27;;;;;;;;;;;7.80;82.30;;;;;;4156661;28;19986;-84
2024/01/24 09:57:28;;;;;;;;;;;7.80;82.60;;;;;;4173374;28;20375;-82
2024/01/24 09:59:29;;;;;;;;;;;7.80;82.50;;;;;;4177544;28;19912;-84
2024/01/24 10:01:33;;;;;;;;;;;7.70;82.50;;;;;;4173092;28;19917;-81
2024/01/24 10:03:34;;;;;;;;;;;7.70;82.50;;;;;;4176054;28;19943;-82
2024/01/24 10:05:54;;;;;;;;;;;7.80;82.70;;;;;;4180700;28;20298;-84
2024/01/24 10:08:15;;;;;;;;;;;7.80;82.80;;;;;;4176974;28;19923;-83
2024/01/24 10:10:36;;;;;;;;;;;7.70;82.80;;;;;;4177294;28;19912;-82
2024/01/24 10:12:56;;;;;;;;;;;7.70;83.00;;;;;;4157937;28;20395;-82
2024/01/24 10:15:17;;;;;;;;;;;7.70;83.30;;;;;;4174779;28;20365;-83
2024/01/24 10:17:42;;;;;;;;;;;7.70;83.40;;;;;;4175817;28;19963;-83
2024/01/24 10:20:06;;;;;;;;;;;7.60;83.40;;;;;;4159254;28;19909;-83
2024/01/24 10:22:26;;;;;;;;;;;7.60;83.30;;;;;;4176156;28;20294;-84
2024/01/24 10:24:48;;;;;;;;;;;7.70;83.40;;;;;;4173900;28;20667;-84
2024/01/24 10:27:08;;;;;;;;;;;7.60;83.70;;;;;;4171954;28;20331;-84
2024/01/24 10:29:29;;;;;;;;;;;7.60;84.00;;;;;;4158490;28;20380;-86
2024/01/24 10:31:56;;;;;;;;;;;7.60;83.90;;;;;;4175755;28;20470;-85
2024/01/24 10:34:17;;;;;;;;;;;7.60;84.20;;;;;;4175170;28;19959;-83
2024/01/24 10:36:38;;;;;;;;;;;7.60;84.30;;;;;;4174566;28;20453;-84
2024/01/24 10:38:44;;;;;;;;;;;7.60;84.90;;;;;;4156632;28;20000;-84
2024/01/24 10:40:45;;;;;;;;;;;7.60;84.80;;;;;;4171358;28;20322;-84
2024/01/24 10:42:50;;;;;;;;;;;7.60;84.80;;;;;;4155926;28;19921;-83
2024/01/24 10:45:11;;;;;;;;;;;7.60;84.80;;;;;;4174770;28;20260;-83
2024/01/24 10:47:32;;;;;;;;;;;7.60;84.60;;;;;;4176627;28;20345;-83
2024/01/24 10:49:53;;;;;;;;;;;7.60;84.60;;;;;;4173270;28;20044;-82
2024/01/24 10:52:15;;;;;;;;;;;7.60;84.40;;;;;;4177933;28;20359;-83
2024/01/24 10:54:37;;;;;;;;;;;7.60;84.30;;;;;;4174680;28;20647;-84
2024/01/24 10:56:59;;;;;;;;;;;7.50;84.10;;;;;;4173931;28;20375;-83
2024/01/24 10:59:20;;;;;;;;;;;7.60;84.00;;;;;;4172061;28;20383;-83
2024/01/24 11:01:40;;;;;;;;;;;7.60;84.00;;;;;;4170494;28;20341;-83
2024/01/24 11:04:04;;;;;;;;;;;7.60;84.00;;;;;;4156282;28;20366;-82
2024/01/24 11:06:08;;;;;;;;;;;7.60;84.00;;;;;;4159648;28;19920;-83
2024/01/24 11:08:15;;;;;;;;;;;7.60;83.80;;;;;;4146264;28;19922;-83
2024/01/24 11:10:23;;;;;;;;;;;7.60;84.00;;;;;;4176656;28;19916;-84
2024/01/24 11:12:24;;;;;;;;;;;7.60;84.10;;;;;;4172662;28;19913;-84
2024/01/24 11:14:29;;;;;;;;;;;7.60;84.10;;;;;;4159306;28;19932;-83
2024/01/24 11:16:30;;;;;;;;;;;7.70;84.10;;;;;;4144911;28;20311;-84
2024/01/24 11:18:41;;;;;;;;;;;7.70;84.40;;;;;;4144779;28;19909;-84
2024/01/24 11:20:52;;;;;;;;;;;7.70;84.30;;;;;;4140635;28;19909;-84
2024/01/24 11:23:31;;;;;;;;;;;7.70;84.40;;;;;;4157899;28;20441;-86
2024/01/24 11:25:52;;;;;;;;;;;7.70;84.60;;;;;;4158961;28;20623;-82
2024/01/24 11:27:57;;;;;;;;;;;7.70;84.40;;;;;;4160176;28;19961;-83
2024/01/24 11:30:24;;;;;;;;;;;7.60;84.20;;;;;;4173544;28;20305;-82
2024/01/24 11:32:44;;;;;;;;;;;7.60;84.40;;;;;;4171937;28;20361;-83
2024/01/24 11:35:23;;;;;;;;;;;7.60;84.50;;;;;;4170982;28;20427;-84
2024/01/24 11:37:44;;;;;;;;;;;7.60;84.40;;;;;;4156810;28;20410;-83
2024/01/24 11:40:04;;;;;;;;;;;7.60;84.40;;;;;;4173328;28;20305;-84
2024/01/24 11:42:26;;;;;;;;;;;7.60;84.50;;;;;;4171757;28;20255;-83
2024/01/24 11:44:47;;;;;;;;;;;7.60;84.50;;;;;;4175718;28;20559;-83
2024/01/24 11:47:07;;;;;;;;;;;7.60;84.20;;;;;;4158959;28;20310;-83
2024/01/24 11:49:28;;;;;;;;;;;7.70;84.40;;;;;;4172969;28;20294;-83
2024/01/24 11:51:59;;;;;;;;;;;7.60;84.10;;;;;;4164439;28;20390;-82
2024/01/24 11:54:19;;;;;;;;;;;7.60;84.10;;;;;;4159456;28;20295;-82
2024/01/24 11:56:40;;;;;;;;;;;7.60;84.10;;;;;;4169550;28;20377;-83
2024/01/24 11:58:52;;;;;;;;;;;7.60;84.00;;;;;;4177969;28;22085;-82
2024/01/24 12:01:13;;;;;;;;;;;7.60;83.70;;;;;;4174698;28;20393;-84
2024/01/24 12:03:17;;;;;;;;;;;7.70;83.60;;;;;;4143150;28;19952;-84
2024/01/24 12:05:38;;;;;;;;;;;7.60;83.50;;;;;;4177413;28;20502;-83
2024/01/24 12:07:59;;;;;;;;;;;7.80;83.40;;;;;;4170773;28;19928;-81
2024/01/24 12:10:20;;;;;;;;;;;7.70;83.20;;;;;;4176433;28;20352;-81
2024/01/24 12:12:41;;;;;;;;;;;7.80;83.30;;;;;;4154573;28;20280;-83
2024/01/24 12:15:01;;;;;;;;;;;7.70;83.10;;;;;;4161416;28;20498;-82
2024/01/24 12:17:22;;;;;;;;;;;7.70;82.90;;;;;;4154393;28;19957;-83
2024/01/24 12:19:44;;;;;;;;;;;7.80;82.80;;;;;;4174422;28;20351;-82
2024/01/24 12:22:06;;;;;;;;;;;7.80;82.70;;;;;;4172935;28;20359;-84
2024/01/24 12:24:26;;;;;;;;;;;7.80;82.50;;;;;;4155499;28;20449;-83
2024/01/24 12:26:47;;;;;;;;;;;7.80;82.40;;;;;;4159424;28;19901;-83
2024/01/24 12:29:08;;;;;;;;;;;8.00;82.40;;;;;;4161022;28;20561;-82
2024/01/24 12:31:28;;;;;;;;;;;7.90;82.10;;;;;;4171604;28;19932;-82
2024/01/24 12:33:50;;;;;;;;;;;7.90;82.00;;;;;;4162151;28;19948;-82
2024/01/24 12:36:11;;;;;;;;;;;8.00;81.90;;;;;;4157488;28;20353;-83
2024/01/24 12:38:33;;;;;;;;;;;8.00;81.80;;;;;;4171855;28;19971;-83
2024/01/24 12:40:54;;;;;;;;;;;8.00;81.80;;;;;;4173423;28;20154;-82
2024/01/24 12:42:55;;;;;;;;;;;8.00;82.30;;;;;;4139109;28;19987;-83
2024/01/24 12:44:56;;;;;;;;;;;8.00;82.50;;;;;;4142804;28;19932;-83
2024/01/24 12:46:57;;;;;;;;;;;8.00;82.50;;;;;;4141239;28;19921;-83
2024/01/24 12:48:58;;;;;;;;;;;8.00;82.50;;;;;;4160762;28;19996;-83
2024/01/24 12:51:19;;;;;;;;;;;8.00;82.50;;;;;;4163293;28;19930;-83
2024/01/24 12:53:39;;;;;;;;;;;8.00;82.40;;;;;;4160493;28;19952;-83
2024/01/24 12:55:54;;;;;;;;;;;7.90;82.40;;;;;;4160784;28;20331;-83
2024/01/24 12:58:15;;;;;;;;;;;8.00;82.30;;;;;;4173764;28;20446;-83
2024/01/24 13:00:35;;;;;;;;;;;8.00;82.30;;;;;;4162589;28;20426;-83
2024/01/24 13:02:40;;;;;;;;;;;8.00;82.40;;;;;;4172796;28;19919;-82